Meath Environmental Platform

Observations

Time Sensor AQI SAQ Temp °C Hum % Pres Pa CO μg/m³ H₂S μg/m³ NO μg/m³ NO₂ μg/m³ O₃ μg/m³ SO₂ μg/m³ CO₂e PPM VOC PPM PM1 μg/m³ PM2.5 μg/m³ PM4 μg/m³ PM10 μg/m³ TPS µm
Wednesday 12 August 2026
04:49 Trim Patrick St 2 18.4 71 38,460 0.02 3.93 1.33 24.65 62.39 0 5.43 10.86 11.95
04:49 Trim Market St 2 19.1 67 56,805 0.07 0 1.29 14.03 63.53 0 2.14 3.68 6.24
04:48 Trim Patrick St 2 18.4 71 38,460 0.03 1.83 1.29 19.78 37.52 0 6.29 10.84 11.93
04:48 Trim Market St 2 19.1 67 56,815 0.06 0 1.29 11.33 71 0 3.56 5.15 7.53
04:47 Trim Patrick St 2 18.4 69 38,460 0.02 1.68 1.38 26.05 57.65 0 6.29 10.3 11.33
04:47 Trim Market St 2 19.1 67 56,812 0.06 0 1.27 14.81 59.92 0 2.85 5.15 8.82
04:46 Trim Patrick St 2 18.4 68 38,460 0.03 3.38 1.36 14.33 51.2 0 4.57 10.33 11.37
04:46 Trim Market St 2 19.2 67 56,820 0.07 0 1.28 12.54 66.03 0 2.85 4.66 8.17
04:45 Trim Patrick St 2 18.4 70 38,460 0.02 3.09 1.31 23.57 55.21 0 6.29 10.19 11.21
04:45 Trim Market St 2 19.1 67 56,834 0.07 0 1.29 12.62 63.78 0 2.14 4.66 6.89
04:44 Trim Patrick St 2 18.4 71 38,460 0.03 4.12 1.29 25.3 57.39 0 5.43 10.1 11.11
04:44 Trim Market St 2 19.1 67 56,846 0.07 0 1.29 12.84 70.08 0 3.56 5.16 8.82
04:43 Trim Patrick St 2 18.4 70 38,460 0.03 1.91 1.3 15.51 56.68 0 7.14 12.32 13.55
04:42 Trim Patrick St 2 18.4 71 38,460 0.03 2.65 1.3 20.71 51.68 0 5.43 9.43 10.37
04:41 Trim Patrick St 2 18.4 71 38,460 0.02 0.34 1.3 12.47 50.63 0 5.43 10.86 11.95
04:40 Trim Patrick St 2 18.4 71 38,460 0.03 2.1 1.3 14.23 49.11 0 5.43 8.68 9.55
04:39 Trim Patrick St 2 18.4 70 38,460 0.03 2.99 1.31 20.96 51.94 0 7.14 10.92 12.01
04:38 Trim Patrick St 2 18.4 68 38,460 0.03 1.57 1.33 28.43 47.75 0 5.43 8.19 9.01
04:38 Trim Market St 2 19.1 67 56,866 0.08 0 1.28 29.81 58.74 0 2.85 5.17 7.53
04:37 Trim Patrick St 2 18.5 70 38,460 0.02 1.23 1.28 11.34 44.25 0 5.43 10.89 11.98